createdAt,value
2017-11-30T00:01:07.016Z,83.20
2017-11-30T00:03:35.087Z,83.20
2017-11-30T00:06:03.202Z,83.20
2017-11-30T00:08:31.256Z,83.30
2017-11-30T00:11:00.116Z,82.30
2017-11-30T00:13:28.182Z,82.40
2017-11-30T00:15:56.255Z,82.10
2017-11-30T00:18:24.323Z,82.20
2017-11-30T00:20:52.408Z,82.60
2017-11-30T00:23:20.506Z,83.20
2017-11-30T00:25:49.336Z,83.80
2017-11-30T00:28:17.422Z,83.60
2017-11-30T00:30:45.493Z,85.20
2017-11-30T00:33:13.564Z,84.80
2017-11-30T00:35:41.640Z,84.60
2017-11-30T00:38:09.815Z,86.10
2017-11-30T00:40:37.895Z,85.70
2017-11-30T00:43:23.666Z,86.50
2017-11-30T00:45:51.735Z,86.50
2017-11-30T00:48:20.423Z,86.40
2017-11-30T00:50:48.492Z,86.10
2017-11-30T00:53:16.584Z,86.10
2017-11-30T00:55:45.430Z,85.60
2017-11-30T00:58:13.499Z,85.60
2017-11-30T01:00:42.996Z,84.80
2017-11-30T01:03:11.571Z,83.80
2017-11-30T01:05:39.764Z,83.30
2017-11-30T01:08:08.440Z,83.20
2017-11-30T01:10:36.505Z,83.20
2017-11-30T01:13:05.856Z,83.20
2017-11-30T01:15:34.700Z,83.20
2017-11-30T01:18:02.804Z,83.30
2017-11-30T01:20:30.869Z,83.20
2017-11-30T01:22:59.041Z,83.20
2017-11-30T01:25:27.204Z,83.20
2017-11-30T01:27:55.906Z,83.20
2017-11-30T01:30:25.019Z,82.70
2017-11-30T01:32:55.134Z,82.50
2017-11-30T01:35:23.192Z,82.50
2017-11-30T01:37:51.828Z,82.40
2017-11-30T01:40:19.905Z,83.00
2017-11-30T01:42:47.971Z,82.90
2017-11-30T01:45:16.028Z,84.30
2017-11-30T01:47:44.349Z,84.90
2017-11-30T01:50:12.519Z,86.20
2017-11-30T01:52:40.589Z,86.30
2017-11-30T01:55:08.652Z,88.30
2017-11-30T01:57:37.905Z,89.30
2017-11-30T02:00:05.980Z,89.90
2017-11-30T02:02:34.049Z,90.30
2017-11-30T02:05:02.175Z,90.40
2017-11-30T02:07:30.340Z,90.60
2017-11-30T02:09:58.398Z,90.50
2017-11-30T02:12:26.468Z,90.50
2017-11-30T02:14:54.531Z,90.50
2017-11-30T02:17:22.602Z,90.10
2017-11-30T02:19:50.721Z,90.40
2017-11-30T02:22:19.579Z,90.00
2017-11-30T02:24:47.640Z,90.00
2017-11-30T02:27:15.708Z,90.30
2017-11-30T02:29:43.771Z,90.20
2017-11-30T02:32:11.874Z,90.00
2017-11-30T02:34:39.941Z,90.10
2017-11-30T02:37:08.000Z,90.40
2017-11-30T02:39:36.063Z,90.50
2017-11-30T02:42:09.982Z,90.80
2017-11-30T02:44:38.032Z,90.60
2017-11-30T02:47:06.105Z,90.80
2017-11-30T02:49:34.182Z,90.60
2017-11-30T02:52:02.257Z,90.10
2017-11-30T02:54:30.328Z,89.30
2017-11-30T02:56:58.397Z,88.50
2017-11-30T02:59:26.468Z,88.50
2017-11-30T03:01:54.535Z,87.90
2017-11-30T03:04:22.607Z,86.80
2017-11-30T03:06:50.660Z,88.00
2017-11-30T03:09:18.735Z,88.10
2017-11-30T03:11:46.807Z,88.00
2017-11-30T03:14:14.875Z,87.90
2017-11-30T03:16:42.945Z,88.60
2017-11-30T03:19:11.020Z,88.30
2017-11-30T03:21:39.091Z,87.40
2017-11-30T03:24:07.167Z,86.50
2017-11-30T03:26:35.244Z,85.20
2017-11-30T03:29:03.301Z,85.60
2017-11-30T03:31:31.374Z,85.20
2017-11-30T03:33:59.446Z,84.80
2017-11-30T03:36:27.528Z,85.30
2017-11-30T03:38:55.593Z,85.70
2017-11-30T03:41:23.668Z,86.50
2017-11-30T03:43:51.747Z,87.60
2017-11-30T03:46:19.816Z,87.20
2017-11-30T03:48:47.886Z,86.90
2017-11-30T03:51:15.941Z,85.80
2017-11-30T03:53:44.008Z,86.30
2017-11-30T03:56:12.081Z,87.40
2017-11-30T03:58:40.152Z,87.20
2017-11-30T04:01:08.220Z,85.70
2017-11-30T04:03:36.297Z,84.00
2017-11-30T04:06:05.042Z,85.10
2017-11-30T04:08:33.113Z,83.80
2017-11-30T04:11:01.183Z,83.40
2017-11-30T04:13:29.258Z,83.60
2017-11-30T04:15:58.189Z,83.40
2017-11-30T04:18:26.251Z,83.40
2017-11-30T04:20:54.325Z,83.50
2017-11-30T04:23:22.876Z,84.40
2017-11-30T04:25:50.998Z,86.30
2017-11-30T04:28:19.066Z,85.30
2017-11-30T04:30:47.128Z,84.20
2017-11-30T04:33:15.195Z,84.10
2017-11-30T04:35:43.268Z,85.90
2017-11-30T04:38:11.337Z,86.20
2017-11-30T04:40:39.409Z,87.70
2017-11-30T04:43:07.493Z,88.60
2017-11-30T04:45:36.556Z,88.00
2017-11-30T04:48:04.656Z,88.20
2017-11-30T04:50:32.728Z,89.40
2017-11-30T04:53:00.800Z,89.60
2017-11-30T04:55:28.944Z,90.00
2017-11-30T04:57:57.011Z,90.20
2017-11-30T05:00:25.088Z,90.20
2017-11-30T05:02:53.161Z,90.30
2017-11-30T05:05:21.245Z,90.30
2017-11-30T05:07:49.322Z,90.20
2017-11-30T05:10:17.390Z,90.20
2017-11-30T05:12:45.460Z,90.10
2017-11-30T05:15:13.535Z,90.30
2017-11-30T05:17:41.709Z,90.10
2017-11-30T05:20:09.768Z,90.00
2017-11-30T05:22:37.840Z,88.60
2017-11-30T05:25:05.933Z,88.10
2017-11-30T05:27:33.995Z,88.80
2017-11-30T05:30:02.057Z,89.80
2017-11-30T05:32:30.132Z,90.00
2017-11-30T05:34:58.212Z,90.10
2017-11-30T05:37:26.896Z,90.00
2017-11-30T05:39:54.952Z,89.90
2017-11-30T05:42:23.023Z,90.00
2017-11-30T05:44:51.095Z,90.00
2017-11-30T05:47:19.164Z,89.60
2017-11-30T05:49:47.475Z,89.30
2017-11-30T05:52:16.316Z,87.10
2017-11-30T05:54:44.389Z,87.10
2017-11-30T05:57:12.446Z,86.90
2017-11-30T05:59:40.525Z,86.50
2017-11-30T06:02:08.581Z,87.70
2017-11-30T06:04:36.654Z,87.70
2017-11-30T06:07:04.721Z,87.60
2017-11-30T06:09:32.790Z,88.30
2017-11-30T06:12:00.862Z,88.00
2017-11-30T06:14:28.932Z,87.50
2017-11-30T06:16:57.023Z,87.20
2017-11-30T06:19:25.106Z,87.50
2017-11-30T06:21:53.169Z,87.70
2017-11-30T06:24:21.253Z,87.50
2017-11-30T06:26:49.331Z,87.60
2017-11-30T06:29:17.419Z,87.50
2017-11-30T06:31:46.252Z,86.80
2017-11-30T06:34:14.326Z,86.80
2017-11-30T06:36:42.389Z,86.50
2017-11-30T06:39:10.456Z,85.70
2017-11-30T06:41:38.528Z,87.00
2017-11-30T06:44:06.605Z,86.20
2017-11-30T06:46:34.673Z,85.40
2017-11-30T06:49:02.745Z,84.50
2017-11-30T06:51:30.820Z,83.80
2017-11-30T06:53:58.913Z,83.80
2017-11-30T06:56:26.984Z,83.80
2017-11-30T06:58:55.053Z,83.80
2017-11-30T07:01:23.123Z,83.90
2017-11-30T07:03:51.257Z,83.30
2017-11-30T07:06:19.319Z,82.80
2017-11-30T07:08:47.380Z,82.20
2017-11-30T07:11:15.444Z,83.10
2017-11-30T07:13:43.511Z,82.60
2017-11-30T07:16:12.368Z,83.80
2017-11-30T07:18:40.435Z,83.80
2017-11-30T07:21:08.615Z,84.10
2017-11-30T07:23:36.683Z,86.00
2017-11-30T07:26:04.750Z,86.60
2017-11-30T07:28:32.928Z,87.70
2017-11-30T07:31:01.095Z,86.20
2017-11-30T07:33:29.177Z,84.00
2017-11-30T07:35:57.259Z,83.90
2017-11-30T07:38:25.329Z,83.90
2017-11-30T07:40:54.164Z,84.00
2017-11-30T07:43:22.227Z,83.80
2017-11-30T07:45:50.283Z,84.40
2017-11-30T07:48:18.351Z,85.50
2017-11-30T07:50:46.420Z,85.40
2017-11-30T07:53:15.274Z,85.60
2017-11-30T07:55:43.349Z,85.70
2017-11-30T07:58:11.416Z,86.70
2017-11-30T08:00:39.579Z,87.50
2017-11-30T08:03:07.638Z,86.60
2017-11-30T08:05:35.736Z,85.70
2017-11-30T08:08:03.791Z,86.50
2017-11-30T08:10:31.864Z,86.20
2017-11-30T08:12:59.936Z,87.50
2017-11-30T08:15:28.013Z,86.60
2017-11-30T08:17:56.080Z,86.30
2017-11-30T08:20:24.156Z,86.70
2017-11-30T08:22:52.231Z,85.50
2017-11-30T08:25:20.303Z,84.60
2017-11-30T08:27:48.375Z,83.00
2017-11-30T08:30:16.478Z,85.50
2017-11-30T08:32:44.528Z,83.30
2017-11-30T08:35:13.374Z,83.60
2017-11-30T08:37:41.472Z,83.60
2017-11-30T08:40:09.545Z,82.60
2017-11-30T08:42:37.617Z,81.90
2017-11-30T08:45:05.778Z,81.00
2017-11-30T08:47:33.860Z,80.90
2017-11-30T08:50:02.689Z,79.90
2017-11-30T08:52:30.760Z,79.90
2017-11-30T08:54:58.832Z,79.40
2017-11-30T08:57:26.903Z,78.50
2017-11-30T08:59:54.966Z,78.10
2017-11-30T09:02:23.048Z,77.90
2017-11-30T09:04:51.114Z,77.40
2017-11-30T09:07:19.228Z,76.90
2017-11-30T09:09:47.296Z,75.60
2017-11-30T09:12:15.368Z,75.70
2017-11-30T09:14:44.316Z,75.70
2017-11-30T09:17:12.396Z,75.90
2017-11-30T09:19:40.476Z,75.10
2017-11-30T09:22:08.572Z,73.90
2017-11-30T09:24:37.140Z,72.00
2017-11-30T09:27:05.229Z,72.90
2017-11-30T09:29:33.297Z,71.90
2017-11-30T09:32:01.369Z,71.60
2017-11-30T09:34:29.441Z,71.40
2017-11-30T09:36:57.509Z,70.00
2017-11-30T09:39:25.591Z,69.70
2017-11-30T09:41:54.424Z,68.30
2017-11-30T09:44:22.496Z,68.20
2017-11-30T09:46:50.581Z,67.50
2017-11-30T09:49:18.650Z,68.00
2017-11-30T09:51:46.721Z,68.30
2017-11-30T09:54:14.796Z,67.50
2017-11-30T09:56:42.869Z,66.70
2017-11-30T09:59:10.952Z,66.50
2017-11-30T10:01:39.523Z,63.30
2017-11-30T10:04:07.605Z,62.10
2017-11-30T10:06:35.696Z,60.00
2017-11-30T10:09:03.776Z,58.10
2017-11-30T10:11:32.648Z,52.50
2017-11-30T10:14:00.806Z,52.50
2017-11-30T10:16:28.893Z,50.50
2017-11-30T10:18:57.481Z,48.80
2017-11-30T10:21:26.320Z,47.40
2017-11-30T10:23:54.396Z,46.00
2017-11-30T10:26:22.859Z,44.90
2017-11-30T10:28:50.933Z,44.00
2017-11-30T10:31:19.023Z,43.50
2017-11-30T10:33:47.116Z,41.00
2017-11-30T10:36:15.234Z,39.70
2017-11-30T10:38:43.362Z,40.70
2017-11-30T10:41:11.481Z,41.10
2017-11-30T10:43:39.544Z,41.40
2017-11-30T10:46:08.434Z,41.30
2017-11-30T10:48:36.512Z,41.50
2017-11-30T10:51:04.597Z,39.90
2017-11-30T10:53:32.681Z,40.00
2017-11-30T10:56:00.751Z,40.90
2017-11-30T10:58:28.840Z,41.50
2017-11-30T11:00:56.899Z,41.60
2017-11-30T11:03:24.983Z,40.00
2017-11-30T11:05:53.648Z,40.00
2017-11-30T11:08:21.724Z,40.30
2017-11-30T11:10:49.797Z,38.10
2017-11-30T11:13:17.971Z,35.70
2017-11-30T11:15:46.044Z,36.10
2017-11-30T11:18:14.170Z,37.00
2017-11-30T11:20:42.251Z,36.50
2017-11-30T11:23:10.428Z,36.50
2017-11-30T11:25:38.741Z,36.50
2017-11-30T11:28:06.825Z,35.40
2017-11-30T11:30:34.919Z,38.60
2017-11-30T11:33:04.680Z,33.50
2017-11-30T11:35:32.775Z,33.40
2017-11-30T11:38:00.842Z,34.20
2017-11-30T11:40:28.915Z,34.10
2017-11-30T11:42:56.996Z,35.80
2017-11-30T11:45:25.648Z,37.70
2017-11-30T11:47:54.324Z,38.80
2017-11-30T11:50:22.405Z,39.60
2017-11-30T11:52:50.488Z,38.60
2017-11-30T11:55:18.568Z,40.40
2017-11-30T11:57:46.741Z,39.20
2017-11-30T12:00:15.118Z,40.40
2017-11-30T12:02:43.201Z,39.80
2017-11-30T12:05:11.292Z,35.80
2017-11-30T12:07:39.553Z,35.40
2017-11-30T12:10:08.438Z,37.00
2017-11-30T12:12:37.289Z,33.80
2017-11-30T12:15:05.382Z,33.90
2017-11-30T12:17:33.658Z,33.90
2017-11-30T12:20:01.821Z,33.40
2017-11-30T12:22:30.721Z,31.70
2017-11-30T12:24:58.799Z,32.80
2017-11-30T12:27:27.659Z,32.10
2017-11-30T12:29:55.741Z,32.00
2017-11-30T12:32:23.866Z,32.00
2017-11-30T12:34:51.936Z,32.60
2017-11-30T12:37:20.034Z,32.90
2017-11-30T12:39:48.116Z,31.60
2017-11-30T12:42:16.208Z,31.10
2017-11-30T12:44:44.276Z,30.20
2017-11-30T12:47:12.406Z,29.30
2017-11-30T12:49:40.485Z,29.20
2017-11-30T12:52:08.571Z,28.20
2017-11-30T12:54:36.675Z,26.40
2017-11-30T12:57:04.736Z,24.10
2017-11-30T12:59:32.810Z,24.80
2017-11-30T13:02:00.878Z,25.40
2017-11-30T13:04:28.959Z,24.90
2017-11-30T13:06:57.021Z,26.40
2017-11-30T13:09:25.100Z,25.60
2017-11-30T13:11:53.336Z,27.00
2017-11-30T13:14:21.415Z,27.00
2017-11-30T13:16:49.482Z,27.90
2017-11-30T13:19:17.838Z,29.90
2017-11-30T13:21:45.947Z,31.80
2017-11-30T13:24:14.106Z,33.00
2017-11-30T13:26:42.190Z,33.70
2017-11-30T13:29:10.294Z,34.20
2017-11-30T13:31:39.151Z,33.80
2017-11-30T13:34:07.231Z,33.80
2017-11-30T13:36:35.326Z,34.60
2017-11-30T13:39:04.291Z,38.30
2017-11-30T13:41:32.447Z,38.40
2017-11-30T13:44:01.220Z,39.00
2017-11-30T13:46:29.286Z,40.10
2017-11-30T13:48:57.394Z,40.80
2017-11-30T13:51:25.462Z,43.30
2017-11-30T13:53:53.612Z,45.00
2017-11-30T13:56:21.755Z,45.80
2017-11-30T13:58:49.836Z,44.60
2017-11-30T14:01:17.910Z,44.90
2017-11-30T14:03:56.791Z,42.00
2017-11-30T14:06:26.223Z,41.00
2017-11-30T14:08:54.298Z,40.90
2017-11-30T14:11:22.403Z,40.50
2017-11-30T14:13:50.493Z,40.10
2017-11-30T14:16:19.358Z,41.30
2017-11-30T14:18:47.838Z,41.20
2017-11-30T14:21:15.986Z,41.20
2017-11-30T14:23:46.159Z,45.20
2017-11-30T14:26:14.233Z,45.10
2017-11-30T14:28:43.206Z,48.60
2017-11-30T14:31:11.354Z,48.50
2017-11-30T14:33:39.438Z,50.40
2017-11-30T14:36:08.305Z,52.00
2017-11-30T14:38:36.917Z,53.50
2017-11-30T14:41:05.363Z,54.80
2017-11-30T14:43:33.459Z,56.40
2017-11-30T14:46:02.470Z,57.70
2017-11-30T14:48:30.546Z,58.90
2017-11-30T14:50:58.610Z,60.40
2017-11-30T14:53:27.837Z,62.70
2017-11-30T14:55:55.906Z,62.60
2017-11-30T14:58:23.992Z,63.70
2017-11-30T15:00:52.103Z,64.60
2017-11-30T15:03:20.175Z,65.40
2017-11-30T15:05:48.266Z,65.90
2017-11-30T15:08:16.334Z,67.30
2017-11-30T15:10:45.473Z,68.20
2017-11-30T15:13:13.531Z,69.90
2017-11-30T15:15:41.673Z,70.60
2017-11-30T15:18:09.742Z,72.50
2017-11-30T15:20:37.923Z,73.90
2017-11-30T15:23:07.541Z,75.70
2017-11-30T15:25:36.395Z,76.00
2017-11-30T15:28:04.511Z,76.00
2017-11-30T15:30:32.643Z,76.90
2017-11-30T15:33:01.530Z,78.20
2017-11-30T15:35:29.605Z,79.10
2017-11-30T15:37:57.670Z,79.70
2017-11-30T15:40:25.742Z,79.90
2017-11-30T15:42:53.807Z,80.00
2017-11-30T15:45:21.861Z,80.30
2017-11-30T15:47:49.937Z,80.80
2017-11-30T15:50:18.005Z,81.10
2017-11-30T15:52:46.074Z,81.10
2017-11-30T15:55:14.148Z,81.30
2017-11-30T15:57:42.211Z,81.20
2017-11-30T16:00:10.287Z,81.10
2017-11-30T16:02:38.362Z,81.10
2017-11-30T16:05:06.454Z,81.50
2017-11-30T16:07:34.514Z,81.40
2017-11-30T16:10:02.655Z,81.40
2017-11-30T16:12:31.259Z,81.20
2017-11-30T16:14:59.328Z,81.40
2017-11-30T16:17:27.400Z,81.40
2017-11-30T16:19:55.469Z,81.00
2017-11-30T16:22:23.541Z,80.70
2017-11-30T16:24:51.613Z,80.50
2017-11-30T16:27:19.682Z,80.60
2017-11-30T16:29:47.753Z,80.40
2017-11-30T16:32:15.824Z,80.60
2017-11-30T16:34:43.895Z,80.20
2017-11-30T16:37:11.968Z,80.00
2017-11-30T16:39:40.162Z,79.40
2017-11-30T16:42:08.235Z,79.70
2017-11-30T16:44:36.309Z,79.30
2017-11-30T16:47:08.141Z,78.50
2017-11-30T16:49:36.198Z,77.50
2017-11-30T16:52:14.174Z,77.10
2017-11-30T16:54:42.558Z,76.70
2017-11-30T16:57:10.635Z,76.10
2017-11-30T16:59:38.698Z,76.00
2017-11-30T17:02:06.813Z,75.30
2017-11-30T17:04:34.882Z,74.80
2017-11-30T17:07:03.055Z,75.10
2017-11-30T17:09:32.991Z,74.40
2017-11-30T17:12:01.868Z,73.80
2017-11-30T17:14:29.939Z,73.80
2017-11-30T17:16:58.012Z,73.80
2017-11-30T17:19:26.072Z,73.30
2017-11-30T17:21:54.161Z,72.80
2017-11-30T17:24:22.990Z,72.80
2017-11-30T17:26:51.120Z,72.70
2017-11-30T17:29:19.198Z,73.20
2017-11-30T17:31:48.170Z,73.90
2017-11-30T17:34:16.264Z,73.50
2017-11-30T17:36:45.855Z,73.70
2017-11-30T17:39:14.694Z,73.60
2017-11-30T17:41:42.818Z,74.10
2017-11-30T17:44:10.891Z,73.60
2017-11-30T17:46:38.966Z,73.60
2017-11-30T17:49:07.810Z,74.00
2017-11-30T17:51:35.879Z,74.00
2017-11-30T17:54:03.942Z,74.20
2017-11-30T17:56:32.034Z,74.30
2017-11-30T17:59:00.107Z,74.50
2017-11-30T18:01:28.353Z,75.00
2017-11-30T18:03:56.728Z,75.10
2017-11-30T18:06:24.790Z,74.90
2017-11-30T18:08:52.857Z,75.10
2017-11-30T18:11:20.940Z,75.50
2017-11-30T18:13:49.007Z,75.90
2017-11-30T18:16:17.079Z,76.30
2017-11-30T18:18:45.150Z,76.70
2017-11-30T18:21:13.221Z,77.10
2017-11-30T18:23:41.285Z,77.00
2017-11-30T18:26:09.346Z,76.70
2017-11-30T18:28:37.627Z,76.50
2017-11-30T18:31:05.720Z,76.50
2017-11-30T18:33:33.768Z,76.00
2017-11-30T18:36:01.844Z,76.40
2017-11-30T18:38:29.941Z,76.40
2017-11-30T18:40:58.043Z,76.30
2017-11-30T18:43:26.114Z,76.30
2017-11-30T18:45:54.197Z,77.50
2017-11-30T18:48:23.335Z,76.00
2017-11-30T18:50:51.402Z,76.10
2017-11-30T18:53:19.475Z,75.90
2017-11-30T18:55:47.547Z,75.90
2017-11-30T18:58:15.642Z,76.00
2017-11-30T19:00:43.714Z,76.40
2017-11-30T19:03:12.140Z,76.70
2017-11-30T19:51:33.706Z,77.10
2017-11-30T19:54:01.753Z,82.60
2017-11-30T19:56:29.828Z,82.60
2017-11-30T19:58:57.887Z,81.80
2017-11-30T20:01:25.978Z,81.00
2017-11-30T20:03:54.049Z,80.40
2017-11-30T20:06:22.137Z,80.00
2017-11-30T20:08:50.296Z,79.20
2017-11-30T20:11:18.367Z,78.80
2017-11-30T20:13:46.437Z,78.60
2017-11-30T20:16:14.511Z,78.70
2017-11-30T20:18:42.581Z,79.10
2017-11-30T20:21:10.647Z,79.10
2017-11-30T20:23:38.714Z,78.80
2017-11-30T20:26:06.810Z,78.50
2017-11-30T20:28:34.964Z,78.50
2017-11-30T20:31:03.026Z,79.00
2017-11-30T20:33:31.186Z,78.00
2017-11-30T20:36:00.149Z,77.70
2017-11-30T20:38:29.082Z,77.60
2017-11-30T20:40:57.159Z,77.30
2017-11-30T20:43:25.234Z,77.30
2017-11-30T20:45:53.368Z,77.50
2017-11-30T20:48:31.408Z,77.20
2017-11-30T20:51:01.080Z,78.30
2017-11-30T20:53:29.153Z,78.70
2017-11-30T20:55:57.350Z,79.00
2017-11-30T20:58:25.422Z,79.10
2017-11-30T21:00:53.495Z,79.60
2017-11-30T21:03:21.581Z,80.00
2017-11-30T21:05:50.482Z,80.20
2017-11-30T21:08:20.505Z,80.20
2017-11-30T21:10:48.550Z,80.10
2017-11-30T21:13:16.633Z,80.10
2017-11-30T21:15:44.786Z,80.00
2017-11-30T21:18:12.961Z,79.60
2017-11-30T21:20:41.034Z,79.40
2017-11-30T21:23:09.094Z,79.10
2017-11-30T21:25:37.181Z,78.70
2017-11-30T21:28:05.347Z,78.60
2017-11-30T21:30:33.510Z,78.30
2017-11-30T21:33:01.578Z,78.20
2017-11-30T21:35:29.651Z,78.20
2017-11-30T21:37:57.718Z,78.00
2017-11-30T21:40:25.794Z,78.00
2017-11-30T21:42:53.867Z,77.90
2017-11-30T21:45:21.939Z,77.70
2017-11-30T21:47:50.003Z,77.60
2017-11-30T21:50:18.091Z,77.50
2017-11-30T21:52:47.393Z,77.50
2017-11-30T21:55:15.535Z,77.20
2017-11-30T21:57:43.607Z,77.10
2017-11-30T22:00:11.674Z,77.50
2017-11-30T22:02:39.747Z,77.40
2017-11-30T22:05:07.814Z,77.30
2017-11-30T22:07:35.897Z,77.10
2017-11-30T22:10:03.965Z,77.00
2017-11-30T22:12:32.058Z,76.90
2017-11-30T22:15:01.007Z,76.90
2017-11-30T22:17:29.105Z,76.70
2017-11-30T22:19:57.182Z,76.50
2017-11-30T22:22:25.249Z,76.40
2017-11-30T22:24:53.322Z,76.10
2017-11-30T22:27:21.426Z,75.90
2017-11-30T22:29:50.265Z,75.50
2017-11-30T22:32:18.368Z,75.60
2017-11-30T22:34:46.438Z,75.30
2017-11-30T22:37:14.803Z,75.10
2017-11-30T22:39:42.880Z,75.60
2017-11-30T22:42:10.946Z,74.50
2017-11-30T22:44:39.031Z,74.40
2017-11-30T22:47:07.719Z,74.40
2017-11-30T22:49:35.787Z,74.10
2017-11-30T22:52:03.952Z,74.50
2017-11-30T22:54:32.031Z,74.60
2017-11-30T22:57:00.093Z,74.90
2017-11-30T22:59:28.158Z,75.10
2017-11-30T23:01:56.231Z,75.20
2017-11-30T23:04:24.305Z,75.30
2017-11-30T23:06:52.375Z,75.00
2017-11-30T23:09:20.447Z,75.10
2017-11-30T23:11:48.534Z,75.50
2017-11-30T23:14:17.388Z,75.40
2017-11-30T23:16:45.458Z,75.40
2017-11-30T23:19:13.563Z,76.00
2017-11-30T23:21:42.405Z,76.40
2017-11-30T23:24:10.474Z,75.90
2017-11-30T23:26:38.594Z,75.70
2017-11-30T23:29:06.614Z,75.50
2017-11-30T23:31:34.686Z,75.50
2017-11-30T23:34:02.751Z,75.50
2017-11-30T23:36:30.840Z,75.30
2017-11-30T23:38:58.899Z,75.10
2017-11-30T23:41:26.971Z,75.10
2017-11-30T23:43:55.038Z,75.80
2017-11-30T23:46:23.118Z,75.60
2017-11-30T23:48:51.206Z,75.50
2017-11-30T23:51:19.298Z,75.20
2017-11-30T23:53:47.424Z,75.50
2017-11-30T23:56:15.548Z,75.70
2017-11-30T23:58:44.382Z,76.50
